createdAt,value
2022-09-28T00:00:53.449Z,12.30
2022-09-28T00:01:53.562Z,12.29
2022-09-28T00:02:53.504Z,12.32
2022-09-28T00:03:53.436Z,12.33
2022-09-28T00:04:53.473Z,12.31
2022-09-28T00:05:53.453Z,12.27
2022-09-28T00:06:53.457Z,12.24
2022-09-28T00:08:53.439Z,12.04
2022-09-28T00:09:53.469Z,12.01
2022-09-28T00:11:53.493Z,12.00
2022-09-28T00:12:53.465Z,12.03
2022-09-28T00:13:53.456Z,12.06
2022-09-28T00:14:53.468Z,12.10
2022-09-28T00:15:53.479Z,12.13
2022-09-28T00:16:53.488Z,12.14
2022-09-28T00:18:53.511Z,12.19
2022-09-28T00:19:53.478Z,12.23
2022-09-28T00:20:53.490Z,12.29
2022-09-28T00:21:53.470Z,12.35
2022-09-28T00:22:53.478Z,12.40
2022-09-28T00:23:53.532Z,12.42
2022-09-28T00:25:53.542Z,12.43
2022-09-28T00:26:53.496Z,12.44
2022-09-28T00:27:53.499Z,12.40
2022-09-28T00:28:53.499Z,12.37
2022-09-28T00:29:53.537Z,12.38
2022-09-28T00:31:53.621Z,12.39
2022-09-28T00:33:53.534Z,12.40
2022-09-28T00:34:53.522Z,12.43
2022-09-28T00:35:53.559Z,12.42
2022-09-28T00:36:53.564Z,12.44
2022-09-28T00:37:53.561Z,12.46
2022-09-28T00:38:53.572Z,12.49
2022-09-28T00:39:53.541Z,12.55
2022-09-28T00:40:53.643Z,12.51
2022-09-28T00:41:53.540Z,12.48
2022-09-28T00:42:53.574Z,12.46
2022-09-28T00:43:53.552Z,12.44
2022-09-28T00:44:53.536Z,12.45
2022-09-28T00:45:53.622Z,12.29
2022-09-28T00:46:53.580Z,12.25
2022-09-28T00:49:53.557Z,12.29
2022-09-28T00:50:53.544Z,12.31
2022-09-28T00:51:53.594Z,12.37
2022-09-28T00:52:53.566Z,12.43
2022-09-28T00:53:53.574Z,12.46
2022-09-28T00:54:53.582Z,12.49
2022-09-28T00:55:53.575Z,12.41
2022-09-28T00:56:53.607Z,12.43
2022-09-28T00:57:53.595Z,12.45
2022-09-28T00:58:53.587Z,12.50
2022-09-28T00:59:53.587Z,12.57
2022-09-28T01:00:53.724Z,12.59
2022-09-28T01:01:53.720Z,12.56
2022-09-28T01:03:53.576Z,12.58
2022-09-28T01:04:53.630Z,12.62
2022-09-28T01:05:53.587Z,12.65
2022-09-28T01:06:53.613Z,12.69
2022-09-28T01:07:53.620Z,12.72
2022-09-28T01:08:53.616Z,12.73
2022-09-28T01:09:53.591Z,12.74
2022-09-28T01:10:53.615Z,12.73
2022-09-28T01:11:53.605Z,12.72
2022-09-28T01:12:53.630Z,12.71
2022-09-28T01:13:53.622Z,12.72
2022-09-28T01:14:53.659Z,12.76
2022-09-28T01:15:53.679Z,12.79
2022-09-28T01:16:53.638Z,12.82
2022-09-28T01:17:53.629Z,12.84
2022-09-28T01:18:53.648Z,12.85
2022-09-28T01:19:53.622Z,12.86
2022-09-28T01:20:53.656Z,12.87
2022-09-28T01:21:53.633Z,12.85
2022-09-28T01:22:53.646Z,12.84
2022-09-28T01:23:53.629Z,12.85
2022-09-28T01:24:53.636Z,12.86
2022-09-28T01:25:53.664Z,12.85
2022-09-28T01:26:53.671Z,12.79
2022-09-28T01:27:53.655Z,12.76
2022-09-28T01:31:53.709Z,12.74
2022-09-28T01:33:53.674Z,12.75
2022-09-28T01:34:53.677Z,12.64
2022-09-28T01:35:53.680Z,12.37
2022-09-28T01:36:53.655Z,12.36
2022-09-28T01:37:53.691Z,12.38
2022-09-28T01:38:53.673Z,12.42
2022-09-28T01:39:53.677Z,12.49
2022-09-28T01:40:53.779Z,12.58
2022-09-28T01:42:53.713Z,12.64
2022-09-28T01:43:53.696Z,12.70
2022-09-28T01:44:53.710Z,12.76
2022-09-28T01:45:53.763Z,12.81
2022-09-28T01:46:53.688Z,12.82
2022-09-28T01:47:53.694Z,12.79
2022-09-28T01:48:53.703Z,12.78
2022-09-28T01:49:53.717Z,12.81
2022-09-28T01:50:53.716Z,12.64
2022-09-28T01:51:53.713Z,12.56
2022-09-28T01:52:53.717Z,12.57
2022-09-28T01:53:53.702Z,12.50
2022-09-28T01:56:53.786Z,12.46
2022-09-28T01:57:53.707Z,12.47
2022-09-28T01:58:53.724Z,12.49
2022-09-28T01:59:53.736Z,12.50
2022-09-28T02:03:53.725Z,12.55
2022-09-28T02:04:53.752Z,12.57
2022-09-28T02:05:53.741Z,12.60
2022-09-28T02:06:53.740Z,12.63
2022-09-28T02:07:53.748Z,12.66
2022-09-28T02:08:53.764Z,12.64
2022-09-28T02:10:53.765Z,12.63
2022-09-28T02:11:53.744Z,12.64
2022-09-28T02:13:53.773Z,12.66
2022-09-28T02:14:53.781Z,12.67
2022-09-28T02:15:53.812Z,12.66
2022-09-28T02:16:53.775Z,12.68
2022-09-28T02:17:53.775Z,12.67
2022-09-28T02:18:53.792Z,12.66
2022-09-28T02:19:53.791Z,12.64
2022-09-28T02:20:53.785Z,12.60
2022-09-28T02:21:53.799Z,12.58
2022-09-28T02:23:53.771Z,12.54
2022-09-28T02:24:53.796Z,12.51
2022-09-28T02:25:53.788Z,12.50
2022-09-28T02:26:53.783Z,12.51
2022-09-28T02:27:53.834Z,12.49
2022-09-28T02:28:53.813Z,12.47
2022-09-28T02:30:53.804Z,12.46
2022-09-28T02:31:53.904Z,12.44
2022-09-28T02:33:53.829Z,12.41
2022-09-28T02:34:53.839Z,12.40
2022-09-28T02:38:53.828Z,12.39
2022-09-28T02:40:53.889Z,12.37
2022-09-28T02:41:53.854Z,12.31
2022-09-28T02:42:53.855Z,12.25
2022-09-28T02:43:53.846Z,12.26
2022-09-28T02:44:53.855Z,12.25
2022-09-28T02:45:53.896Z,12.23
2022-09-28T02:47:53.851Z,12.24
2022-09-28T02:49:10.456Z,12.23
2022-09-28T02:49:53.857Z,12.25
2022-09-28T02:50:53.840Z,12.29
2022-09-28T02:51:53.843Z,12.21
2022-09-28T02:52:53.852Z,12.19
2022-09-28T02:54:53.881Z,11.98
2022-09-28T02:55:53.872Z,11.92
2022-09-28T02:56:53.876Z,11.91
2022-09-28T02:57:53.920Z,11.79
2022-09-28T02:58:53.887Z,11.73
2022-09-28T02:59:53.859Z,11.75
2022-09-28T03:00:53.973Z,11.81
2022-09-28T03:01:53.957Z,11.87
2022-09-28T03:02:53.894Z,11.92
2022-09-28T03:03:53.876Z,11.99
2022-09-28T03:04:53.909Z,11.98
2022-09-28T03:05:53.893Z,11.99
2022-09-28T03:07:53.917Z,11.90
2022-09-28T03:08:53.913Z,11.94
2022-09-28T03:09:53.891Z,11.97
2022-09-28T03:10:53.958Z,12.01
2022-09-28T03:11:53.918Z,12.06
2022-09-28T03:12:53.906Z,12.10
2022-09-28T03:13:53.906Z,12.12
2022-09-28T03:14:53.904Z,12.03
2022-09-28T03:15:53.949Z,12.02
2022-09-28T03:16:53.919Z,11.95
2022-09-28T03:17:53.916Z,11.97
2022-09-28T03:19:53.933Z,11.96
2022-09-28T03:20:53.976Z,11.98
2022-09-28T03:21:53.947Z,11.96
2022-09-28T03:23:12.708Z,12.00
2022-09-28T03:23:53.933Z,12.04
2022-09-28T03:24:53.921Z,11.81
2022-09-28T03:25:53.953Z,11.77
2022-09-28T03:26:53.930Z,11.81
2022-09-28T03:27:53.959Z,11.75
2022-09-28T03:28:53.942Z,11.77
2022-09-28T03:29:53.938Z,11.82
2022-09-28T03:30:53.956Z,11.85
2022-09-28T03:31:53.969Z,11.90
2022-09-28T03:32:53.940Z,11.96
2022-09-28T03:33:53.949Z,12.01
2022-09-28T03:34:53.958Z,12.08
2022-09-28T03:35:54.001Z,12.12
2022-09-28T03:38:53.953Z,12.13
2022-09-28T03:39:53.996Z,12.15
2022-09-28T03:40:54.102Z,12.17
2022-09-28T03:41:53.985Z,12.15
2022-09-28T03:42:54.001Z,12.12
2022-09-28T03:43:53.990Z,12.11
2022-09-28T03:44:53.995Z,12.07
2022-09-28T03:46:54.000Z,12.08
2022-09-28T03:47:53.998Z,12.05
2022-09-28T03:48:53.997Z,11.98
2022-09-28T03:49:54.037Z,11.97
2022-09-28T03:50:54.014Z,11.88
2022-09-28T03:51:54.001Z,11.83
2022-09-28T03:52:54.009Z,11.88
2022-09-28T03:53:53.995Z,11.94
2022-09-28T03:54:54.031Z,12.00
2022-09-28T03:55:54.016Z,12.05
2022-09-28T03:56:54.022Z,12.06
2022-09-28T03:57:54.017Z,12.07
2022-09-28T03:58:54.029Z,12.02
2022-09-28T04:00:54.064Z,12.03
2022-09-28T04:01:54.096Z,12.07
2022-09-28T04:02:54.037Z,12.05
2022-09-28T04:03:54.034Z,12.04
2022-09-28T04:04:54.048Z,12.03
2022-09-28T04:05:54.053Z,12.06
2022-09-28T04:06:54.048Z,12.09
2022-09-28T04:07:54.065Z,12.12
2022-09-28T04:09:54.029Z,12.13
2022-09-28T04:10:54.051Z,12.16
2022-09-28T04:12:03.794Z,12.18
2022-09-28T04:12:54.073Z,12.21
2022-09-28T04:13:54.065Z,12.23
2022-09-28T04:14:54.078Z,12.26
2022-09-28T04:15:54.068Z,12.28
2022-09-28T04:16:54.181Z,12.32
2022-09-28T04:17:54.083Z,12.34
2022-09-28T04:18:54.071Z,12.36
2022-09-28T04:19:54.082Z,12.39
2022-09-28T04:20:54.085Z,12.40
2022-09-28T04:21:54.077Z,12.41
2022-09-28T04:22:54.104Z,12.42
2022-09-28T04:23:54.085Z,12.44
2022-09-28T04:24:54.098Z,12.43
2022-09-28T04:26:54.104Z,12.44
2022-09-28T04:28:54.092Z,12.40
2022-09-28T04:29:54.117Z,12.35
2022-09-28T04:30:54.132Z,12.29
2022-09-28T04:31:54.156Z,12.24
2022-09-28T04:32:54.114Z,12.20
2022-09-28T04:33:54.105Z,12.19
2022-09-28T04:34:54.119Z,12.18
2022-09-28T04:35:54.123Z,12.20
2022-09-28T04:36:54.137Z,12.19
2022-09-28T04:37:54.131Z,12.20
2022-09-28T04:38:54.136Z,12.21
2022-09-28T04:39:54.120Z,12.24
2022-09-28T04:40:54.190Z,12.23
2022-09-28T04:41:54.123Z,12.20
2022-09-28T04:42:54.149Z,12.17
2022-09-28T04:43:54.141Z,12.12
2022-09-28T04:44:54.144Z,12.08
2022-09-28T04:45:54.230Z,11.98
2022-09-28T04:46:54.179Z,11.95
2022-09-28T04:47:54.163Z,11.93
2022-09-28T04:48:54.144Z,11.94
2022-09-28T04:51:54.174Z,11.96
2022-09-28T04:52:54.186Z,11.79
2022-09-28T04:53:54.183Z,11.78
2022-09-28T04:54:54.164Z,11.81
2022-09-28T04:55:54.165Z,11.83
2022-09-28T04:56:54.172Z,11.90
2022-09-28T04:57:54.165Z,11.95
2022-09-28T04:58:54.172Z,11.99
2022-09-28T04:59:54.176Z,12.05
2022-09-28T05:00:54.244Z,12.10
2022-09-28T05:01:54.309Z,12.13
2022-09-28T05:02:54.186Z,12.15
2022-09-28T05:03:54.185Z,12.18
2022-09-28T05:04:54.210Z,12.22
2022-09-28T05:05:54.196Z,12.19
2022-09-28T05:07:54.205Z,12.25
2022-09-28T05:08:54.200Z,12.29
2022-09-28T05:09:54.207Z,12.32
2022-09-28T05:10:54.199Z,12.36
2022-09-28T05:11:54.218Z,12.39
2022-09-28T05:13:54.201Z,12.38
2022-09-28T05:14:54.213Z,12.28
2022-09-28T05:15:57.567Z,12.25
2022-09-28T05:16:54.265Z,12.15
2022-09-28T05:17:54.218Z,12.08
2022-09-28T05:18:54.228Z,12.06
2022-09-28T05:20:54.224Z,12.05
2022-09-28T05:21:54.244Z,11.91
2022-09-28T05:22:54.239Z,11.75
2022-09-28T05:23:54.244Z,11.63
2022-09-28T05:24:54.237Z,11.60
2022-09-28T05:25:54.237Z,11.64
2022-09-28T05:26:54.242Z,11.70
2022-09-28T05:27:54.260Z,11.59
2022-09-28T05:28:54.271Z,11.47
2022-09-28T05:29:54.252Z,11.41
2022-09-28T05:30:54.253Z,11.42
2022-09-28T05:31:54.318Z,11.36
2022-09-28T05:32:54.260Z,11.45
2022-09-28T05:33:54.268Z,11.56
2022-09-28T05:34:54.255Z,11.69
2022-09-28T05:35:57.879Z,11.81
2022-09-28T05:36:54.256Z,11.91
2022-09-28T05:37:54.273Z,12.04
2022-09-28T05:38:54.286Z,12.14
2022-09-28T05:39:54.306Z,12.21
2022-09-28T05:40:54.343Z,12.17
2022-09-28T05:41:54.263Z,11.98
2022-09-28T05:42:54.299Z,11.84
2022-09-28T05:43:54.284Z,11.89
2022-09-28T05:44:54.303Z,11.85
2022-09-28T05:45:55.785Z,11.72
2022-09-28T05:46:54.288Z,11.74
2022-09-28T05:47:54.311Z,11.83
2022-09-28T05:48:54.321Z,11.93
2022-09-28T05:49:54.322Z,12.01
2022-09-28T05:50:54.320Z,12.09
2022-09-28T05:51:54.292Z,12.14
2022-09-28T05:52:54.295Z,12.16
2022-09-28T05:53:54.309Z,12.18
2022-09-28T05:54:54.339Z,12.14
2022-09-28T05:56:54.345Z,12.18
2022-09-28T05:57:54.329Z,12.24
2022-09-28T05:58:54.320Z,12.27
2022-09-28T05:59:54.332Z,12.18
2022-09-28T06:00:54.384Z,12.13
2022-09-28T06:01:54.328Z,12.10
2022-09-28T06:02:54.312Z,12.17
2022-09-28T06:03:54.329Z,12.20
2022-09-28T06:04:54.365Z,12.27
2022-09-28T06:05:54.345Z,12.31
2022-09-28T06:06:54.344Z,12.32
2022-09-28T06:07:54.354Z,12.33
2022-09-28T06:08:54.362Z,12.31
2022-09-28T06:09:54.361Z,12.32
2022-09-28T06:10:54.359Z,12.33
2022-09-28T06:12:54.361Z,12.34
2022-09-28T06:13:54.351Z,12.35
2022-09-28T06:14:54.355Z,12.37
2022-09-28T06:16:54.456Z,12.38
2022-09-28T06:18:54.365Z,12.37
2022-09-28T06:19:54.384Z,12.39
2022-09-28T06:21:54.382Z,12.42
2022-09-28T06:22:54.398Z,12.46
2022-09-28T06:23:54.386Z,12.49
2022-09-28T06:24:54.391Z,12.51
2022-09-28T06:25:54.372Z,12.48
2022-09-28T06:26:54.401Z,12.47
2022-09-28T06:27:54.379Z,12.46
2022-09-28T06:29:54.408Z,12.44
2022-09-28T06:30:54.448Z,12.41
2022-09-28T06:31:54.433Z,12.37
2022-09-28T06:32:54.409Z,12.34
2022-09-28T06:33:54.464Z,12.31
2022-09-28T06:34:56.424Z,12.30
2022-09-28T06:35:54.396Z,12.22
2022-09-28T06:36:54.418Z,12.20
2022-09-28T06:37:54.416Z,12.15
2022-09-28T06:38:54.403Z,12.16
2022-09-28T06:39:54.470Z,12.19
2022-09-28T06:40:54.514Z,12.24
2022-09-28T06:41:54.415Z,12.28
2022-09-28T06:42:54.432Z,12.31
2022-09-28T06:43:54.454Z,12.27
2022-09-28T06:44:54.444Z,12.24
2022-09-28T06:45:54.561Z,12.19
2022-09-28T06:47:54.477Z,12.21
2022-09-28T06:48:54.454Z,12.26
2022-09-28T06:49:54.454Z,12.31
2022-09-28T06:50:54.465Z,12.36
2022-09-28T06:51:54.456Z,12.42
2022-09-28T06:52:54.469Z,12.46
2022-09-28T06:53:54.469Z,12.52
2022-09-28T06:54:54.511Z,12.57
2022-09-28T06:55:54.486Z,12.63
2022-09-28T06:56:54.480Z,12.67
2022-09-28T06:57:54.463Z,12.71
2022-09-28T06:58:54.479Z,12.72
2022-09-28T06:59:54.501Z,12.73
2022-09-28T07:00:54.554Z,12.75
2022-09-28T07:02:54.519Z,12.74
2022-09-28T07:03:55.801Z,12.71
2022-09-28T07:04:54.510Z,12.68
2022-09-28T07:05:54.480Z,12.65
2022-09-28T07:07:54.516Z,12.68
2022-09-28T07:09:02.406Z,12.67
2022-09-28T07:09:55.326Z,12.66
2022-09-28T07:10:54.524Z,12.64
2022-09-28T07:11:54.498Z,12.62
2022-09-28T07:12:54.573Z,12.59
2022-09-28T07:13:54.521Z,12.57
2022-09-28T07:14:54.935Z,12.58
2022-09-28T07:15:54.554Z,12.61
2022-09-28T07:17:10.003Z,12.64
2022-09-28T07:18:00.531Z,12.66
2022-09-28T07:18:54.515Z,12.70
2022-09-28T07:19:54.528Z,12.72
2022-09-28T07:20:54.801Z,12.73
2022-09-28T07:22:04.060Z,12.74
2022-09-28T07:22:54.555Z,12.75
2022-09-28T07:23:54.617Z,12.76
2022-09-28T07:24:54.548Z,12.78
2022-09-28T07:26:54.596Z,12.82
2022-09-28T07:27:54.528Z,12.84
2022-09-28T07:28:54.549Z,12.86
2022-09-28T07:29:54.560Z,12.88
2022-09-28T07:30:54.603Z,12.89
2022-09-28T07:31:54.561Z,12.88
2022-09-28T07:32:54.543Z,12.87
2022-09-28T07:33:54.567Z,12.86
2022-09-28T07:35:54.562Z,12.88
2022-09-28T07:37:54.579Z,12.87
2022-09-28T07:38:54.601Z,12.88
2022-09-28T07:39:54.581Z,12.87
2022-09-28T07:40:54.755Z,12.88
2022-09-28T07:41:59.636Z,12.80
2022-09-28T07:42:54.574Z,12.77
2022-09-28T07:44:54.592Z,12.79
2022-09-28T07:45:54.667Z,12.74
2022-09-28T07:46:54.593Z,12.70
2022-09-28T07:47:54.614Z,12.73
2022-09-28T07:48:54.592Z,12.77
2022-09-28T07:49:54.598Z,12.68
2022-09-28T07:50:54.602Z,12.69
2022-09-28T07:51:54.600Z,12.76
2022-09-28T07:52:54.617Z,12.83
2022-09-28T07:53:54.612Z,12.89
2022-09-28T07:54:54.628Z,12.92
2022-09-28T07:55:54.615Z,12.93
2022-09-28T07:56:54.637Z,12.96
2022-09-28T07:57:54.616Z,12.97
2022-09-28T07:58:54.624Z,12.98
2022-09-28T07:59:54.656Z,12.99
2022-09-28T08:01:54.742Z,12.94
2022-09-28T08:02:54.639Z,12.93
2022-09-28T08:04:54.653Z,12.95
2022-09-28T08:09:54.656Z,13.02
2022-09-28T08:12:54.670Z,13.01
2022-09-28T08:14:54.675Z,13.04
2022-09-28T08:16:54.651Z,13.05
2022-09-28T08:17:56.120Z,13.04
2022-09-28T08:19:54.644Z,13.01
2022-09-28T08:20:54.659Z,13.03
2022-09-28T08:21:54.655Z,13.06
2022-09-28T08:22:54.787Z,13.03
2022-09-28T08:23:54.658Z,13.04
2022-09-28T08:24:54.686Z,13.08
2022-09-28T08:25:54.729Z,13.09
2022-09-28T08:27:54.690Z,13.07
2022-09-28T08:29:03.736Z,13.06
2022-09-28T08:29:14.349Z,13.06
2022-09-28T08:29:54.693Z,13.05
2022-09-28T08:30:54.767Z,13.06
2022-09-28T08:31:57.258Z,13.07
2022-09-28T08:32:54.696Z,13.10
2022-09-28T08:33:54.692Z,13.13
2022-09-28T08:34:54.701Z,13.14
2022-09-28T08:35:54.721Z,13.15
2022-09-28T08:36:54.716Z,13.18
2022-09-28T08:37:55.662Z,13.21
2022-09-28T08:38:54.728Z,13.22
2022-09-28T08:39:54.721Z,13.25
2022-09-28T08:40:54.908Z,13.26
2022-09-28T08:41:54.739Z,13.29
2022-09-28T08:42:54.732Z,13.30
2022-09-28T08:43:54.738Z,13.29
2022-09-28T08:44:54.755Z,13.30
2022-09-28T08:46:54.754Z,13.33
2022-09-28T08:47:54.734Z,13.35
2022-09-28T08:49:13.046Z,13.37
2022-09-28T08:50:54.737Z,13.47
2022-09-28T08:51:54.756Z,13.51
2022-09-28T08:52:54.756Z,13.54
2022-09-28T08:53:54.750Z,13.58
2022-09-28T08:55:54.754Z,13.60
2022-09-28T08:56:54.781Z,13.64
2022-09-28T08:57:54.762Z,13.65
2022-09-28T08:58:54.786Z,13.67
2022-09-28T08:59:54.797Z,13.69
2022-09-28T09:00:54.861Z,13.72
2022-09-28T09:01:57.416Z,13.76
2022-09-28T09:02:54.843Z,13.79
2022-09-28T09:03:54.793Z,13.80
2022-09-28T09:04:54.784Z,13.76
2022-09-28T09:05:54.902Z,13.74
2022-09-28T09:06:54.807Z,13.66
2022-09-28T09:07:54.796Z,13.62
2022-09-28T09:08:54.803Z,13.65
2022-09-28T09:09:54.802Z,13.67
2022-09-28T09:10:54.804Z,13.71
2022-09-28T09:13:54.843Z,13.72
2022-09-28T09:14:54.795Z,13.74
2022-09-28T09:16:56.046Z,13.72
2022-09-28T09:17:54.812Z,13.71
2022-09-28T09:19:54.839Z,13.73
2022-09-28T09:21:54.831Z,13.72
2022-09-28T09:22:54.827Z,13.73
2022-09-28T09:23:54.816Z,13.75
2022-09-28T09:25:54.842Z,13.77
2022-09-28T09:26:54.815Z,13.76
2022-09-28T09:28:54.844Z,13.78
2022-09-28T09:29:54.901Z,13.79
2022-09-28T09:30:54.878Z,13.82
2022-09-28T09:31:54.829Z,13.85
2022-09-28T09:32:54.868Z,13.89
2022-09-28T09:33:54.866Z,13.91
2022-09-28T09:34:54.855Z,13.93
2022-09-28T09:35:54.845Z,13.94
2022-09-28T09:36:54.876Z,13.95
2022-09-28T09:37:58.352Z,13.97
2022-09-28T09:38:54.879Z,13.99
2022-09-28T09:39:54.862Z,14.03
2022-09-28T09:40:55.050Z,14.05
2022-09-28T09:42:54.876Z,14.06
2022-09-28T09:43:54.869Z,14.09
2022-09-28T09:44:54.881Z,14.13
2022-09-28T09:45:55.028Z,14.16
2022-09-28T09:46:54.883Z,14.20
2022-09-28T09:47:54.888Z,14.23
2022-09-28T09:48:54.907Z,14.27
2022-09-28T09:49:54.910Z,14.31
2022-09-28T09:50:54.907Z,14.35
2022-09-28T09:51:54.890Z,14.37
2022-09-28T09:52:54.912Z,14.39
2022-09-28T09:53:54.907Z,14.41
2022-09-28T09:54:54.904Z,14.44
2022-09-28T09:55:54.915Z,14.46
2022-09-28T09:56:54.937Z,14.48
2022-09-28T09:57:54.911Z,14.51
2022-09-28T09:58:54.899Z,14.55
2022-09-28T09:59:54.916Z,14.57
2022-09-28T10:03:54.953Z,14.55
2022-09-28T10:04:54.942Z,14.51
2022-09-28T10:05:54.955Z,14.52
2022-09-28T10:06:54.944Z,14.54
2022-09-28T10:07:54.956Z,14.57
2022-09-28T10:08:54.961Z,14.59
2022-09-28T10:09:54.959Z,14.62
2022-09-28T10:10:54.940Z,14.61
2022-09-28T10:11:54.940Z,14.56
2022-09-28T10:12:54.959Z,14.52
2022-09-28T10:14:54.956Z,14.54
2022-09-28T10:15:54.992Z,14.57
2022-09-28T10:16:54.981Z,14.61
2022-09-28T10:17:54.962Z,14.64
2022-09-28T10:18:54.947Z,14.66
2022-09-28T10:19:54.962Z,14.68
2022-09-28T10:20:54.960Z,14.70
2022-09-28T10:21:54.976Z,14.73
2022-09-28T10:22:54.990Z,14.74
2022-09-28T10:23:54.969Z,14.76
2022-09-28T10:24:54.987Z,14.79
2022-09-28T10:26:54.979Z,14.80
2022-09-28T10:28:55.000Z,14.79
2022-09-28T10:30:55.226Z,14.78
2022-09-28T10:31:54.975Z,14.77
2022-09-28T10:32:54.999Z,14.76
2022-09-28T10:33:54.989Z,14.75
2022-09-28T10:34:55.019Z,14.76
2022-09-28T10:35:55.019Z,14.77
2022-09-28T10:37:55.016Z,14.78
2022-09-28T10:38:55.020Z,14.79
2022-09-28T10:39:55.016Z,14.82
2022-09-28T10:40:55.160Z,14.84
2022-09-28T10:41:55.037Z,14.86
2022-09-28T10:42:55.029Z,14.88
2022-09-28T10:46:55.031Z,14.89
2022-09-28T10:47:55.056Z,14.91
2022-09-28T10:48:55.047Z,14.92
2022-09-28T10:49:55.057Z,14.93
2022-09-28T10:50:55.070Z,14.96
2022-09-28T10:51:55.051Z,14.98
2022-09-28T10:52:55.047Z,15.00
2022-09-28T10:53:55.055Z,15.01
2022-09-28T10:54:55.067Z,15.03
2022-09-28T10:55:55.050Z,15.05
2022-09-28T10:56:55.063Z,15.07
2022-09-28T10:57:55.064Z,15.08
2022-09-28T10:58:55.065Z,15.11
2022-09-28T10:59:55.066Z,15.15
2022-09-28T11:00:55.116Z,15.18
2022-09-28T11:01:55.095Z,15.20
2022-09-28T11:02:55.198Z,15.22
2022-09-28T11:03:55.081Z,15.24
2022-09-28T11:05:55.067Z,15.23
2022-09-28T11:07:55.082Z,15.22
2022-09-28T11:08:55.097Z,15.23
2022-09-28T11:09:55.099Z,15.26
2022-09-28T11:10:55.099Z,15.28
2022-09-28T11:12:55.145Z,15.22
2022-09-28T11:13:55.089Z,15.19
2022-09-28T11:15:55.125Z,15.18
2022-09-28T11:16:55.126Z,15.19
2022-09-28T11:17:55.117Z,15.15
2022-09-28T11:18:55.130Z,15.12
2022-09-28T11:19:55.111Z,15.10
2022-09-28T11:20:55.139Z,15.09
2022-09-28T11:21:55.129Z,15.08
2022-09-28T11:22:55.152Z,15.07
2022-09-28T11:23:55.145Z,15.05
2022-09-28T11:25:55.115Z,15.03
2022-09-28T11:26:55.139Z,15.00
2022-09-28T11:27:55.182Z,14.98
2022-09-28T11:28:55.141Z,14.95
2022-09-28T11:29:55.143Z,14.93
2022-09-28T11:30:55.227Z,14.92
2022-09-28T11:31:55.170Z,14.90
2022-09-28T11:34:59.661Z,14.92
2022-09-28T11:36:58.418Z,14.91
2022-09-28T11:37:55.168Z,14.92
2022-09-28T11:39:55.183Z,14.91
2022-09-28T11:40:55.277Z,14.92
2022-09-28T11:41:55.184Z,14.93
2022-09-28T11:42:55.278Z,14.95
2022-09-28T11:43:55.182Z,14.96
2022-09-28T11:44:55.210Z,14.99
2022-09-28T11:45:55.250Z,15.01
2022-09-28T11:46:55.178Z,15.03
2022-09-28T11:47:55.200Z,15.05
2022-09-28T11:48:55.185Z,15.06
2022-09-28T11:49:55.206Z,15.05
2022-09-28T11:52:55.202Z,15.06
2022-09-28T11:53:55.202Z,15.08
2022-09-28T11:54:55.209Z,15.11
2022-09-28T11:55:55.226Z,15.10
2022-09-28T11:56:55.197Z,15.09
2022-09-28T12:02:55.366Z,15.08
2022-09-28T12:03:55.212Z,15.07
2022-09-28T12:06:55.254Z,15.06
2022-09-28T12:07:55.254Z,15.04
2022-09-28T12:10:55.236Z,15.03
2022-09-28T12:11:55.256Z,15.02
2022-09-28T12:13:55.241Z,15.01
2022-09-28T12:16:22.990Z,15.02
2022-09-28T12:18:55.342Z,14.99
2022-09-28T12:19:55.278Z,14.97
2022-09-28T12:21:55.267Z,14.93
2022-09-28T12:22:55.288Z,14.89
2022-09-28T12:23:55.291Z,14.86
2022-09-28T12:24:55.314Z,14.85
2022-09-28T12:25:55.312Z,14.84
2022-09-28T12:26:55.292Z,14.82
2022-09-28T12:27:55.323Z,14.79
2022-09-28T12:28:55.303Z,14.77
2022-09-28T12:30:55.456Z,14.79
2022-09-28T12:31:55.321Z,14.81
2022-09-28T12:32:55.325Z,14.83
2022-09-28T12:33:55.325Z,14.85
2022-09-28T12:35:55.334Z,14.87
2022-09-28T12:36:55.311Z,14.88
2022-09-28T12:37:55.360Z,14.90
2022-09-28T12:39:17.703Z,14.92
2022-09-28T12:39:57.865Z,14.93
2022-09-28T12:40:55.587Z,14.88
2022-09-28T12:41:55.331Z,14.85
2022-09-28T12:42:55.365Z,14.84
2022-09-28T12:46:11.022Z,14.82
2022-09-28T12:46:55.486Z,14.81
2022-09-28T12:47:55.350Z,14.80
2022-09-28T12:51:55.372Z,14.78
2022-09-28T12:52:58.105Z,14.75
2022-09-28T12:53:55.365Z,14.72
2022-09-28T12:54:55.358Z,14.70
2022-09-28T12:55:55.360Z,14.69
2022-09-28T12:56:55.385Z,14.65
2022-09-28T12:57:55.378Z,14.55
2022-09-28T12:58:55.383Z,14.52
2022-09-28T12:59:55.362Z,14.51
2022-09-28T13:00:55.374Z,14.50
2022-09-28T13:01:55.444Z,14.45
2022-09-28T13:02:55.478Z,14.42
2022-09-28T13:03:55.371Z,14.45
2022-09-28T13:04:55.391Z,14.46
2022-09-28T13:06:55.399Z,14.47
2022-09-28T13:07:55.388Z,14.48
2022-09-28T13:08:55.381Z,14.42
2022-09-28T13:09:55.390Z,14.39
2022-09-28T13:10:55.401Z,14.37
2022-09-28T13:11:55.415Z,14.32
2022-09-28T13:12:55.409Z,14.31
2022-09-28T13:14:55.412Z,14.29
2022-09-28T13:17:55.411Z,14.28
2022-09-28T13:18:55.422Z,14.27
2022-09-28T13:20:55.444Z,14.26
2022-09-28T13:21:55.400Z,14.25
2022-09-28T13:24:08.734Z,14.23
2022-09-28T13:24:55.443Z,14.21
2022-09-28T13:25:55.444Z,14.14
2022-09-28T13:26:55.489Z,14.10
2022-09-28T13:27:55.439Z,14.09
2022-09-28T13:28:55.432Z,14.07
2022-09-28T13:30:55.571Z,14.08
2022-09-28T13:31:55.442Z,14.07
2022-09-28T13:32:55.476Z,14.05
2022-09-28T13:33:55.455Z,14.04
2022-09-28T13:34:55.469Z,14.02
2022-09-28T13:35:55.464Z,14.01
2022-09-28T13:36:55.459Z,13.99
2022-09-28T13:37:55.475Z,13.98
2022-09-28T13:39:55.486Z,13.96
2022-09-28T13:40:55.494Z,13.94
2022-09-28T13:42:55.517Z,13.93
2022-09-28T13:43:55.488Z,13.90
2022-09-28T13:44:55.492Z,13.88
2022-09-28T13:45:55.581Z,13.87
2022-09-28T13:47:55.498Z,13.88
2022-09-28T13:48:55.477Z,13.87
2022-09-28T13:49:55.517Z,13.86
2022-09-28T13:50:55.495Z,13.83
2022-09-28T13:51:55.504Z,13.80
2022-09-28T13:52:55.493Z,13.79
2022-09-28T13:53:55.523Z,13.80
2022-09-28T13:55:55.524Z,13.79
2022-09-28T13:56:55.524Z,13.77
2022-09-28T13:57:55.524Z,13.73
2022-09-28T13:58:55.513Z,13.70
2022-09-28T13:59:55.529Z,13.68
2022-09-28T14:00:55.547Z,13.67
2022-09-28T14:02:55.583Z,13.66
2022-09-28T14:03:55.555Z,13.65
2022-09-28T14:04:55.533Z,13.64
2022-09-28T14:05:55.573Z,13.63
2022-09-28T14:06:55.868Z,13.62
2022-09-28T14:07:57.198Z,13.60
2022-09-28T14:08:55.535Z,13.59
2022-09-28T14:09:55.548Z,13.57
2022-09-28T14:10:55.570Z,13.56
2022-09-28T14:11:55.551Z,13.52
2022-09-28T14:12:55.566Z,13.51
2022-09-28T14:14:55.591Z,13.50
2022-09-28T14:15:55.615Z,13.49
2022-09-28T14:17:55.549Z,13.47
2022-09-28T14:18:55.594Z,13.45
2022-09-28T14:19:55.578Z,13.39
2022-09-28T14:20:55.574Z,13.37
2022-09-28T14:21:55.582Z,13.36
2022-09-28T14:22:55.566Z,13.35
2022-09-28T14:23:59.081Z,13.33
2022-09-28T14:24:55.639Z,13.32
2022-09-28T14:26:55.614Z,13.33
2022-09-28T14:27:55.575Z,13.32
2022-09-28T14:28:55.626Z,13.29
2022-09-28T14:29:55.591Z,13.28
2022-09-28T14:30:55.663Z,13.26
2022-09-28T14:31:55.612Z,13.23
2022-09-28T14:32:55.617Z,13.22
2022-09-28T14:33:55.606Z,13.19
2022-09-28T14:34:55.609Z,13.15
2022-09-28T14:35:55.598Z,13.16
2022-09-28T14:37:55.626Z,13.19
2022-09-28T14:38:55.606Z,13.22
2022-09-28T14:40:55.679Z,13.23
2022-09-28T14:42:55.636Z,13.21
2022-09-28T14:43:55.625Z,13.20
2022-09-28T14:44:55.632Z,13.18
2022-09-28T14:45:55.663Z,13.17
2022-09-28T14:46:55.626Z,13.14
2022-09-28T14:47:55.643Z,13.13
2022-09-28T14:48:55.640Z,13.10
2022-09-28T14:49:55.654Z,13.09
2022-09-28T14:50:55.661Z,13.08
2022-09-28T14:52:55.661Z,13.06
2022-09-28T14:53:55.671Z,13.05
2022-09-28T14:57:55.695Z,13.03
2022-09-28T14:58:55.669Z,13.01
2022-09-28T14:59:55.693Z,13.02
2022-09-28T15:02:55.680Z,13.03
2022-09-28T15:04:55.772Z,12.99
2022-09-28T15:05:55.693Z,12.93
2022-09-28T15:06:55.705Z,12.89
2022-09-28T15:07:55.716Z,12.86
2022-09-28T15:08:55.695Z,12.82
2022-09-28T15:09:55.695Z,12.80
2022-09-28T15:10:55.700Z,12.76
2022-09-28T15:11:55.684Z,12.73
2022-09-28T15:13:55.718Z,12.75
2022-09-28T15:14:55.694Z,12.79
2022-09-28T15:15:55.755Z,12.81
2022-09-28T15:16:55.716Z,12.84
2022-09-28T15:17:55.717Z,12.89
2022-09-28T15:18:55.739Z,12.93
2022-09-28T15:19:55.726Z,12.95
2022-09-28T15:20:55.711Z,12.96